• Join FlightAware (Why Join?)
  • Login
  • US Flag 
06:21AM EDT


 

Airport Tracker/Info


-or-


 

Live Flight TrackerFlight Track Log ✈ PKW629 ✈ 08-May-2013 ✈ KRFD - KELP

Flight Track Log - Related Links

Times and Time Zones

All times are in EDT time to prevent confusion due to time zone crossing. See the PKW629 flight status page for this flight to view local times or setup timezone preferences in your user account.

Time Position Orientation Groundspeed Altitude Reporting Facility
EDT Latitude Longitude Course Direction KTS MPH feet Rate Location/Type
06:49AM 42.1267 -89.1186 200° South 138 159 3,800  Level Chicago Center
06:50AM 42.0828 -89.1458 205° Southwest 160 184 5,600 1,620 Climbing Chicago Center
06:52AM 42.0406 -89.1675 201° Southwest 171 197 7,200 1,500 Climbing Chicago Center
06:53AM 41.9928 -89.1919 201° Southwest 182 209 8,700 1,440 Climbing Chicago Center
06:54AM 41.9464 -89.2167 202° Southwest 181 208 10,200 1,380 Climbing Chicago Center
06:55AM 41.8248 -89.2626 200° South  Level FlightAware Approximate
06:55AM 41.8992 -89.2397 200° South 181 208 11,500  Level Chicago Center
06:56AM 41.8511 -89.2622 199° South 184 212 12,700 1,140 Climbing Chicago Center
06:57AM 41.7914 -89.2903 199° South 187 215 13,800 1,020 Climbing Chicago Center
06:58AM 41.7394 -89.3156 200° South 196 226 14,800 840 Climbing Chicago Center
06:59AM 41.6844 -89.3400 198° South 204 235 15,600 780 Climbing Chicago Center
07:00AM 41.6308 -89.3658 200° South 206 237 16,500 840 Climbing Chicago Center
07:01AM 41.5761 -89.3928 200° South 209 241 17,300 660 Climbing Chicago Center
07:02AM 41.5178 -89.4206 200° South 214 246 17,900 420 Climbing Chicago Center
07:03AM 41.4586 -89.4517 202° Southwest 225 259 18,200 60 Climbing Chicago Center
07:04AM 41.3911 -89.4814 198° South 251 289 18,100 -120 Descending Chicago Center
07:05AM 41.3222 -89.5147 200° South 261 300 18,000 -60 Descending Chicago Center
07:06AM 41.2503 -89.5453 198° South 270 311 18,000  Level Chicago Center
07:07AM 41.1797 -89.5808 201° Southwest 271 312 18,100  Climbing Chicago Center
07:08AM 41.1194 -89.6381 216° Southwest 271 312 18,000 -60 Descending Chicago Center
07:09AM 41.0706 -89.7106 228° Southwest 265 305 18,000  Level Chicago Center
07:10AM 41.0194 -89.7817 226° Southwest 267 307 18,000  Level Chicago Center
07:11AM 40.9617 -89.8594 225° Southwest 268 308 18,000  Level Chicago Center
07:12AM 40.9119 -89.9319 228° Southwest 269 310 18,000  Level Chicago Center
07:13AM 40.8583 -90.0019 225° Southwest 271 312 18,000  Level Chicago Center
07:14AM 40.8056 -90.0717 225° Southwest 270 311 18,000  Level Chicago Center
07:15AM 40.7550 -90.1428 227° Southwest 268 308 18,000  Level Chicago Center
07:16AM 40.7006 -90.2114 224° Southwest 271 312 18,000  Level Chicago Center
07:17AM 40.6447 -90.2856 225° Southwest 267 307 18,000  Level Chicago Center
07:18AM 40.5928 -90.3553 226° Southwest 268 308 18,000  Level Chicago Center
07:19AM 40.5403 -90.4233 225° Southwest 267 307 18,000  Level Chicago Center
07:20AM 40.4872 -90.4919 225° Southwest 266 306 18,000  Level Chicago Center
07:21AM 40.4267 -90.5789 228° Southwest 271 312 18,000  Level Chicago Center
07:22AM 40.3764 -90.6489 227° Southwest 265 305 18,000  Level Chicago Center
07:23AM 40.3247 -90.7183 226° Southwest 266 306 18,000  Level Chicago Center
07:24AM 40.2731 -90.7864 225° Southwest 265 305 18,100  Climbing Chicago Center
07:25AM 40.2197 -90.8531 224° Southwest 264 304 18,000 -120 Descending Chicago Center
07:25AM 40.1992 -90.8811 226° Southwest 264 304 18,000 60 Level Kansas City Center
07:26AM 40.1489 -90.9522 227° Southwest 266 306 18,100  Climbing Kansas City Center
07:28AM 40.0969 -91.0233 226° Southwest 266 306 18,000 -60 Descending Kansas City Center
07:29AM 40.0422 -91.0928 224° Southwest 272 313 18,000  Level Kansas City Center
07:30AM 39.9889 -91.1597 224° Southwest 271 312 18,000  Level Kansas City Center
07:31AM 39.9356 -91.2261 224° Southwest 268 308 18,000  Level Kansas City Center
07:32AM 39.8753 -91.3100 227° Southwest 267 307 18,000  Level Kansas City Center
07:33AM 39.8286 -91.3825 230° Southwest 265 305 18,100  Climbing Kansas City Center
07:34AM 39.7722 -91.4464 221° Southwest 266 306 18,000 -60 Descending Kansas City Center
07:35AM 39.7203 -91.5119 224° Southwest 264 304 18,000  Level Kansas City Center
07:36AM 39.6683 -91.5808 226° Southwest 267 307 18,000  Level Kansas City Center
07:37AM 39.6164 -91.6475 225° Southwest 265 305 18,000  Level Kansas City Center
07:38AM 39.5597 -91.7183 224° Southwest 262 302 18,000  Level Kansas City Center
07:39AM 39.5122 -91.7794 225° Southwest 264 304 18,000  Level Kansas City Center
07:40AM 39.4614 -91.8472 226° Southwest 263 303 18,000  Level Kansas City Center
07:41AM 39.4097 -91.9117 224° Southwest 261 300 18,000  Level Kansas City Center
07:42AM 39.3481 -91.9922 225° Southwest 262 302 18,000  Level Kansas City Center
07:43AM 39.2961 -92.0581 224° Southwest 263 303 18,000  Level Kansas City Center
07:44AM 39.2472 -92.1186 224° Southwest 263 303 18,000  Level Kansas City Center
07:45AM 39.1956 -92.1844 225° Southwest 262 302 18,000 -60 Level Kansas City Center
07:46AM 39.1436 -92.2497 224° Southwest 261 300 17,900 -60 Descending Kansas City Center
07:47AM 39.0897 -92.3111 221° Southwest 260 299 17,900  Level Kansas City Center
07:48AM 39.0292 -92.3894 225° Southwest 256 295 18,000  Climbing Kansas City Center
07:49AM 38.9800 -92.4575 227° Southwest 258 297 18,000  Level Kansas City Center
07:50AM 38.9272 -92.5178 222° Southwest 256 295 18,000  Level Kansas City Center
07:51AM 38.8775 -92.5822 225° Southwest 254 292 18,000  Level Kansas City Center
07:52AM 38.8269 -92.6472 225° Southwest 255 293 18,000 -60 Level Kansas City Center
07:53AM 38.7764 -92.7103 224° Southwest 255 293 17,900  Descending Kansas City Center
07:54AM 38.7264 -92.7725 224° Southwest 252 290 18,100 60 Climbing Kansas City Center
07:55AM 38.6772 -92.8339 224° Southwest 250 288 18,100  Level Kansas City Center
07:56AM 38.6267 -92.8958 224° Southwest 250 288 18,100  Level Kansas City Center
07:57AM 38.5756 -92.9556 222° Southwest 250 288 18,100  Level Kansas City Center
07:58AM 38.5267 -93.0206 226° Southwest 251 289 18,100 -60 Level Kansas City Center
07:59AM 38.4758 -93.0847 225° Southwest 254 292 18,000 -60 Descending Kansas City Center
08:00AM 38.4136 -93.1594 223° Southwest 256 295 18,000  Level Kansas City Center
08:01AM 38.3625 -93.2219 224° Southwest 255 293 18,000  Level Kansas City Center
08:02AM 38.3122 -93.2850 225° Southwest 255 293 18,000  Level Kansas City Center
08:03AM 38.2600 -93.3453 222° Southwest 254 292 18,100  Climbing Kansas City Center
08:04AM 38.2081 -93.4058 222° Southwest 252 290 18,000 -60 Descending Kansas City Center
08:05AM 38.1567 -93.4675 223° Southwest 253 291 18,000  Level Kansas City Center
08:06AM 38.1050 -93.5292 223° Southwest 254 292 18,000  Level Kansas City Center
08:07AM 38.0536 -93.5925 224° Southwest 256 295 18,000  Level Kansas City Center
08:08AM 38.0017 -93.6547 223° Southwest 257 296 18,000  Level Kansas City Center
08:09AM 37.9497 -93.7158 223° Southwest 256 295 18,100  Climbing Kansas City Center
08:10AM 37.8972 -93.7772 223° Southwest 255 293 18,000  Descending Kansas City Center
08:11AM 37.8428 -93.8411 223° Southwest 255 293 18,100  Climbing Kansas City Center
08:12AM 37.7558 -93.8556 187° South 275 316 18,000 -60 Descending Kansas City Center
08:13AM 37.6817 -93.8619 184° South 270 311 18,000  Level Kansas City Center
08:14AM 37.6039 -93.8686 184° South 275 316 18,100  Climbing Kansas City Center
08:15AM 37.5289 -93.8822 188° South 275 316 18,000 -60 Descending Kansas City Center
08:16AM 37.4561 -93.9003 191° South 270 311 18,000  Level Kansas City Center
08:17AM 37.3836 -93.9250 195° South 269 310 18,000  Level Kansas City Center
08:18AM 37.3122 -93.9539 198° South 268 308 18,100  Climbing Kansas City Center
08:19AM 37.2431 -93.9839 199° South 266 306 18,000 -60 Descending Kansas City Center
08:20AM 37.1733 -94.0172 201° Southwest 268 308 18,000  Level Kansas City Center
08:21AM 37.1011 -94.0492 199° South 265 305 18,000  Level Kansas City Center
08:23AM 37.0339 -94.0886 205° Southwest 266 306 18,100  Climbing Kansas City Center
08:24AM 36.9658 -94.1214 201° Southwest 262 302 18,000 -120 Descending Kansas City Center
08:25AM 36.8864 -94.1708 206° Southwest 265 305 17,900 -60 Descending Kansas City Center
08:26AM 36.8225 -94.2219 213° Southwest 271 312 17,900  Level Kansas City Center
08:27AM 36.7636 -94.2750 216° Southwest 264 304 18,000  Climbing Kansas City Center
08:28AM 36.7078 -94.3303 218° Southwest 259 298 18,000  Level Kansas City Center
08:29AM 36.6578 -94.3978 227° Southwest 262 302 18,000  Level Kansas City Center
08:30AM 36.6117 -94.4669 230° Southwest 262 302 18,000  Level Kansas City Center
08:31AM 36.5633 -94.5325 227° Southwest 258 297 18,100  Climbing Kansas City Center
08:32AM 36.5100 -94.5931 222° Southwest 257 296 18,100 -120 Level Kansas City Center
08:33AM 36.4558 -94.6514 221° Southwest 257 296 17,900 -120 Descending Kansas City Center
08:34AM 36.4353 -94.7364 253° West 257 296 17,900  Level Kansas City Center
08:35AM 36.4069 -94.8347 250° West 254 292 18,000  Climbing Kansas City Center
08:36AM 36.3800 -94.9142 247° West 251 289 18,000  Level Kansas City Center
08:37AM 36.3547 -94.9953 249° West 251 289 18,000  Level Kansas City Center
08:38AM 36.3219 -95.0711 242° Southwest 256 295 18,100 -120 Climbing Kansas City Center
08:39AM 36.2675 -95.1353 224° Southwest 256 295 17,800 -540 Descending Kansas City Center
08:40AM 36.2233 -95.2097 234° Southwest 270 311 17,000 -840 Descending Kansas City Center
08:41AM 36.1972 -95.2972 250° West 271 312 16,200 -540 Descending Kansas City Center
08:42AM 36.1661 -95.3811 245° Southwest 269 310 15,900 -180 Descending Kansas City Center
08:43AM 36.1394 -95.4622 248° West 261 300 15,900  Level Kansas City Center
08:44AM 36.1150 -95.5419 249° West 255 293 16,000  Climbing Kansas City Center
08:45AM 36.0850 -95.6172 244° Southwest 248 285 16,000  Level Kansas City Center
08:46AM 36.0622 -95.6950 250° West 242 278 16,000 -60 Level Kansas City Center
08:47AM 36.0319 -95.7875 248° West 242 278 15,900 -60 Descending Kansas City Center
08:48AM 36.0042 -95.8644 246° West 244 281 15,900  Level Kansas City Center
08:49AM 35.9764 -95.9408 246° West 244 281 16,000  Climbing Kansas City Center
08:50AM 35.9506 -96.0169 247° West 242 278 16,000  Level Kansas City Center
08:51AM 35.9247 -96.0953 248° West 244 281 16,000  Level Kansas City Center
08:52AM 35.8983 -96.1717 247° West 244 281 16,000 -60 Level Kansas City Center
08:53AM 35.8725 -96.2500 248° West 246 283 15,900 -60 Descending Kansas City Center
08:54AM 35.8464 -96.3269 247° West 245 282 15,900  Level Kansas City Center
08:55AM 35.8164 -96.4186 248° West 248 285 15,900  Level Kansas City Center
08:56AM 35.7903 -96.4969 248° West 248 285 16,000  Climbing Kansas City Center
08:57AM 35.7631 -96.5747 247° West 249 287 16,000  Level Kansas City Center
08:58AM 35.7350 -96.6528 246° West 250 288 16,000  Level Kansas City Center
08:59AM 35.7069 -96.7319 246° West 253 291 16,000  Level Kansas City Center
09:00AM 35.6761 -96.8097 244° Southwest 254 292 16,000  Level Kansas City Center
09:01AM 35.6417 -96.8861 241° Southwest 256 295 16,000 -60 Level Kansas City Center
09:03AM 35.5639 -96.9517 214° Southwest 263 303 15,900  Descending Fort Worth Center
09:04AM 35.5350 -97.0283 245° Southwest 263 303 16,000  Climbing Fort Worth Center
09:05AM 35.5122 -97.1128 252° West 258 297 16,000  Level Fort Worth Center
09:06AM 35.4853 -97.1917 247° West 258 297 16,000 -60 Level Fort Worth Center
09:07AM 35.4625 -97.2683 250° West 258 297 15,900 -60 Descending Fort Worth Center
09:08AM 35.4394 -97.3500 251° West 258 297 15,900  Level Fort Worth Center
09:09AM 35.4083 -97.4339 246° West 263 303 16,000  Climbing Fort Worth Center
09:10AM 35.3811 -97.5156 248° West 269 310 15,900  Descending Fort Worth Center
09:11AM 35.3561 -97.5994 250° West 269 310 16,000 60 Climbing Fort Worth Center
09:12AM 35.3289 -97.6808 248° West 269 310 16,100  Climbing Fort Worth Center
09:13AM 35.3036 -97.7594 249° West 264 304 16,000 -60 Descending Fort Worth Center
09:14AM 35.2783 -97.8408 249° West 264 304 16,000 -60 Level Fort Worth Center
09:15AM 35.2489 -97.9219 246° West 264 304 15,900 -60 Descending Fort Worth Center
09:16AM 35.2256 -98.0031 251° West 259 298 15,900  Level Fort Worth Center
09:17AM 35.2000 -98.0817 248° West 259 298 15,900  Level Fort Worth Center
09:18AM 35.1703 -98.1628 246° West 259 298 16,000  Climbing Fort Worth Center
09:19AM 35.1428 -98.2439 248° West 259 298 16,000  Level Fort Worth Center
09:20AM 35.1150 -98.3222 247° West 253 291 16,000  Level Fort Worth Center
09:21AM 35.0894 -98.4006 248° West 253 291 16,000  Level Fort Worth Center
09:22AM 35.0658 -98.4814 250° West 240 276 16,000 -60 Level Fort Worth Center
09:23AM 35.0358 -98.5672 247° West 249 287 15,900 -60 Descending Fort Worth Center
09:24AM 35.0081 -98.6406 245° Southwest 249 287 15,900  Level Fort Worth Center
09:25AM 34.9842 -98.7236 251° West 254 292 15,900  Level Fort Worth Center
09:26AM 34.9625 -98.7994 251° West 255 293 16,000  Climbing Fort Worth Center
09:27AM 34.9303 -98.8825 245° Southwest 255 293 16,000  Level Fort Worth Center
09:28AM 34.9108 -98.9531 251° West 248 285 16,100 60 Climbing Fort Worth Center
09:29AM 34.8761 -99.0408 244° Southwest 264 304 16,200  Climbing Fort Worth Center
09:30AM 34.8439 -99.1161 242° Southwest 264 304 16,200 -120 Level Fort Worth Center
09:31AM 34.8181 -99.1839 245° Southwest 259 298 16,000 -120 Descending Fort Worth Center
09:32AM 34.7917 -99.2669 249° West 259 298 16,000  Level Fort Worth Center
09:33AM 34.7614 -99.3419 244° Southwest 244 281 16,000  Level Fort Worth Center
09:34AM 34.7311 -99.4147 243° Southwest 249 287 16,100  Climbing Fort Worth Center
09:35AM 34.7028 -99.4922 246° West 249 287 16,000  Descending Fort Worth Center
09:36AM 34.6742 -99.5697 246° West 255 293 16,100  Climbing Fort Worth Center
09:37AM 34.6458 -99.6397 244° Southwest 250 288 16,100 -60 Level Fort Worth Center
09:38AM 34.6153 -99.7197 245° Southwest 250 288 16,000 -60 Descending Fort Worth Center
09:39AM 34.5928 -99.8050 252° West 260 299 16,000  Level Fort Worth Center
09:40AM 34.5664 -99.8697 244° Southwest 251 289 16,000  Level Fort Worth Center
09:41AM 34.5378 -99.9444 245° Southwest 251 289 16,000  Level Fort Worth Center
09:42AM 34.5050 -100.0242 244° Southwest 245 282 16,000  Level Fort Worth Center
09:43AM 34.4742 -100.1014 244° Southwest 251 289 16,000 -60 Level Fort Worth Center
09:44AM 34.4472 -100.1786 247° West 256 295 15,900  Descending Fort Worth Center
09:45AM 34.4164 -100.2556 244° Southwest 256 295 16,000  Climbing Fort Worth Center
09:46AM 34.3875 -100.3300 245° Southwest 256 295 16,000  Level Fort Worth Center
09:47AM 34.3586 -100.4097 246° West 256 295 16,000  Level Fort Worth Center
09:48AM 34.3342 -100.4717 244° Southwest 256 295 16,000  Level Fort Worth Center
09:49AM 34.3006 -100.5636 246° West 256 295 16,000  Level Fort Worth Center
09:50AM 34.2694 -100.6378 243° Southwest 251 289 16,000  Level Fort Worth Center
09:51AM 34.2408 -100.6969 240° Southwest 256 295 16,000  Level Fort Worth Center
09:52AM 34.2028 -100.7883 243° Southwest 256 295 16,000  Level Fort Worth Center
09:53AM 34.1761 -100.8553 244° Southwest 261 300 16,000  Level Fort Worth Center
09:54AM 34.1447 -100.9342 244° Southwest 255 293 16,000  Level Fort Worth Center
09:55AM 34.1172 -101.0133 247° West 255 293 16,000  Level Fort Worth Center
09:56AM 34.0839 -101.0872 241° Southwest 255 293 16,000  Level Fort Worth Center
09:56AM 34.0611 -101.1464 245° Southwest 239 275 16,000 -60 Level Fort Worth Center
09:57AM 34.0403 -101.2158 250° West 242 278 15,900 -120 Descending Fort Worth Center
09:58AM 34.0314 -101.2353 241° Southwest 248 285 15,900 60 Level Fort Worth Center
09:58AM 34.0044 -101.2942 241° Southwest 242 278 16,000  Climbing Fort Worth Center
09:59AM 33.9775 -101.3583 243° Southwest 238 274 16,000  Level Fort Worth Center
10:00AM 33.9706 -101.3778 247° West 242 278 16,000  Level Fort Worth Center
10:00AM 33.9506 -101.4194 240° Southwest 236 272 16,000  Level Fort Worth Center
10:01AM 33.9436 -101.4417 249° West 237 273 16,000  Level Fort Worth Center
10:01AM 33.9233 -101.4883 242° Southwest 237 273 16,000  Level Fort Worth Center
10:02AM 33.9119 -101.5203 247° West 237 273 16,000  Level Fort Worth Center
10:02AM 33.8958 -101.5622 245° Southwest 240 276 16,000  Level Fort Worth Center
10:03AM 33.8867 -101.5842 243° Southwest 237 273 16,000  Level Fort Worth Center
10:03AM 33.8664 -101.6333 244° Southwest 240 276 16,000  Level Fort Worth Center
10:04AM 33.8547 -101.6653 246° West 237 273 16,000  Level Fort Worth Center
10:04AM 33.8392 -101.6994 241° Southwest 241 277 16,000  Level Fort Worth Center
10:05AM 33.8278 -101.7264 243° Southwest 237 273 16,000  Level Fort Worth Center
10:05AM 33.8072 -101.7728 242° Southwest 240 276 16,000 60 Level Fort Worth Center
10:06AM 33.7956 -101.8072 248° West 242 278 16,100 60 Climbing Fort Worth Center
10:06AM 33.7778 -101.8414 238° Southwest 235 270 16,100 -120 Level Fort Worth Center
10:07AM 33.7681 -101.8783 252° West 237 273 16,000 -120 Descending Fort Worth Center
10:07AM 33.7522 -101.9100 239° Southwest 237 273 16,000 -120 Level Fort Worth Center
10:08AM 33.7408 -101.9419 247° West 237 273 15,900 -120 Descending Fort Worth Center
10:08AM 33.7200 -101.9958 245° Southwest 239 275 15,900  Level Fort Worth Center
10:09AM 33.6903 -102.0667 243° Southwest 237 273 15,900  Level Fort Worth Center
10:10AM 33.6628 -102.1325 243° Southwest 237 273 16,000  Climbing Fort Worth Center
10:11AM 33.6331 -102.1983 242° Southwest 231 266 16,000 -60 Level Fort Worth Center
10:12AM 33.6053 -102.2689 245° Southwest 232 267 15,900  Descending Fort Worth Center
10:13AM 33.5736 -102.3344 240° Southwest 229 264 16,000 60 Climbing Fort Worth Center
10:14AM 33.5575 -102.3761 245° Southwest 228 262 16,000  Level Fort Worth Center
10:14AM 33.5478 -102.4053 248° West 227 261 16,000 -120 Level Fort Worth Center
10:15AM 33.5314 -102.4542 248° West 233 268 15,900 -120 Descending Fort Worth Center
10:16AM 33.5039 -102.5150 242° Southwest 233 268 15,900  Level Fort Worth Center
10:17AM 33.4717 -102.5828 240° Southwest 233 268 15,900  Level Fort Worth Center
10:18AM 33.4464 -102.6436 244° Southwest 238 274 15,900  Level Fort Worth Center
10:19AM 33.4206 -102.7092 245° Southwest 238 274 15,900  Level Fort Worth Center
10:20AM 33.3922 -102.7847 246° West 238 274 15,900  Level Fort Worth Center
10:21AM 33.3644 -102.8500 243° Southwest 233 268 16,000  Climbing Fort Worth Center
10:22AM 33.3364 -102.9181 244° Southwest 233 268 16,000  Level Fort Worth Center
10:23AM 33.3017 -102.9953 242° Southwest 240 276 16,000  Level Fort Worth Center
10:24AM 33.2739 -103.0606 243° Southwest 240 276 16,000  Level Fort Worth Center
10:25AM 33.2408 -103.1406 244° Southwest 240 276 16,000  Level Fort Worth Center
10:25AM 33.2344 -103.1558 243° Southwest 238 274 16,000  Level Albuquerque Center
10:26AM 33.2061 -103.2244 244° Southwest 236 272 16,000 -60 Level Albuquerque Center
10:27AM 33.1783 -103.2958 245° Southwest 236 272 15,900  Descending Albuquerque Center
10:28AM 33.1489 -103.3647 243° Southwest 236 272 16,000  Climbing Albuquerque Center
10:29AM 33.1161 -103.4325 240° Southwest 235 270 15,900  Descending Albuquerque Center
10:30AM 33.0781 -103.5169 242° Southwest 238 274 16,100 60 Climbing Albuquerque Center
10:31AM 33.0492 -103.5886 244° Southwest 240 276 16,100  Level Albuquerque Center
10:32AM 33.0214 -103.6606 245° Southwest 241 277 16,100 -60 Level Albuquerque Center
10:33AM 32.9883 -103.7425 244° Southwest 239 275 16,000  Descending Albuquerque Center
10:34AM 32.9822 -103.8181 265° West 246 283 16,100  Climbing Albuquerque Center
10:35AM 32.9894 -103.9064 276° West 247 284 16,100 -60 Level Albuquerque Center
10:36AM 32.9961 -103.9867 276° West 246 283 16,000 -60 Descending Albuquerque Center
10:37AM 33.0064 -104.0678 279° West 247 284 16,000 -60 Level Albuquerque Center
10:38AM 33.0192 -104.1544 280° West 249 287 15,900  Descending Albuquerque Center
10:40AM 33.0300 -104.2353 279° West 248 285 16,000  Climbing Albuquerque Center
10:41AM 33.0381 -104.3233 276° West 249 287 16,000 -60 Level Albuquerque Center
10:42AM 33.0475 -104.4044 278° West 248 285 15,900  Descending Albuquerque Center
10:43AM 33.0575 -104.4853 278° West 247 284 16,000  Climbing Albuquerque Center
10:44AM 33.0681 -104.5711 278° West 244 281 15,900  Descending Albuquerque Center
10:45AM 33.0750 -104.6497 276° West 239 275 16,000  Climbing Albuquerque Center
10:46AM 33.0844 -104.7347 278° West 241 277 16,000 -60 Level Albuquerque Center
10:47AM 33.0833 -104.8122 269° West 242 278 15,900  Descending Albuquerque Center
10:48AM 33.0261 -104.8619 216° Southwest 241 277 16,000  Climbing Albuquerque Center
10:49AM 32.9778 -104.9158 223° Southwest 238 274 15,900  Descending Albuquerque Center
10:50AM 32.9294 -104.9683 222° Southwest 236 272 16,000  Climbing Albuquerque Center
10:52AM 32.8236 -105.0703 219° Southwest 237 273 15,900  Descending Albuquerque Center
10:53AM 32.7692 -105.1197 217° Southwest 231 266 16,000  Climbing Albuquerque Center
10:54AM 32.7125 -105.1594 211° Southwest 235 270 16,000  Level Albuquerque Center
10:55AM 32.6572 -105.2047 215° Southwest 236 272 16,100  Climbing Albuquerque Center
10:56AM 32.6047 -105.2492 215° Southwest 234 269 16,000 -120 Descending Albuquerque Center
10:57AM 32.5483 -105.2953 215° Southwest 242 278 15,900  Descending Albuquerque Center
10:58AM 32.4981 -105.3442 219° Southwest 238 274 16,000  Climbing Albuquerque Center
10:59AM 32.4486 -105.3922 219° Southwest 233 268 16,000  Level Albuquerque Center
11:00AM 32.3817 -105.4450 214° Southwest 240 276 16,000 -60 Level Albuquerque Center
11:01AM 32.3331 -105.4956 221° Southwest 236 272 15,900  Descending Albuquerque Center
11:02AM 32.2833 -105.5442 220° Southwest 233 268 16,000 60 Climbing Albuquerque Center
11:03AM 32.2317 -105.5906 217° Southwest 233 268 16,100  Climbing Albuquerque Center
11:04AM 32.1844 -105.6433 223° Southwest 233 268 16,100  Level Albuquerque Center
11:05AM 32.1342 -105.6925 220° Southwest 235 270 16,100 -300 Level Albuquerque Center
11:06AM 32.0694 -105.7514 218° Southwest 247 284 15,500 -780 Descending Albuquerque Center
11:08AM 32.0069 -105.8081 218° Southwest 256 295 14,500 -780 Descending Albuquerque Center
11:08AM 31.9581 -105.8550 219° Southwest 255 293 14,000 -720 Descending Albuquerque Center
11:09AM 31.9533 -105.9456 267° West 256 295 13,100 -1,020 Descending Albuquerque Center
11:11AM 31.9692 -106.0306 282° West 265 305 12,000 -1,380 Descending Albuquerque Center
11:12AM 31.9783 -106.1161 277° West 268 308 10,300 -1,680 Descending Albuquerque Center
11:13AM 31.9856 -106.1858 277° West 216 249 8,600 -1,860 Descending Albuquerque Center
11:14AM 31.9764 -106.2503 260° West 187 215 6,500 -1,320 Descending Albuquerque Center
11:15AM 31.9242 -106.2622 191° South 190 219 5,900 -480 Descending Albuquerque Center
11:16AM 31.8808 -106.2833 202° Southwest 207 238 5,600 -600 Descending Albuquerque Center
11:17AM 31.8522 -106.3275 233° Southwest 178 205 4,700 -600 Descending Albuquerque Center
11:18AM 31.8325 -106.3578 233° Southwest 151 174 4,500 -720 Descending Albuquerque Center
11:18AM 31.8239 -106.3667 221° Southwest 128 147 4,000 -1,920 Descending Albuquerque Center
11:20AM 31.8000 -106.3667 270° West  Level FlightAware Approximate
11:27AM 31.8072 -106.3764 270° West  Level Estimated
11:28AM 31.8072 -106.3764 270° West  Level Estimated
11:29AM 31.8072 -106.3764 270° West  Level Estimated
11:30AM 31.8072 -106.3764 270° West  Level Estimated